Springhill, Canada
Current Conditions -  °F | °C
As of 1:23 PM on Friday 24 Oct 2014 (Local Time) from CYQM Reporting Station
Rain Showers Rain Showers  
Wind Chill: 50°   Ceiling: 300
Heat Index: 50°   Visibility: 1.7mi
Dew Point: 48°   Wind: 16mph
Humidity: 94%   Direction: 10°N
Pressure: 29.59"   Gusts: 22mph
Location:  45.65°N, 64.06°W
Report Text: CYQM 241623Z 01014G19KT 1 3/4SM -SHRA BR OVC003 10/09 A2959 RMK SF8 SLP021
Loading
Personal Weather Stations






























Interactive Weather Map
Tropical Storm Tracking
New forecast layout! Learn more

10-Day Weather Forecast

Advertisements
Track Severe Weather on mobile